sensor_id;sensor_type;location;lat;lon;timestamp;temperature;humidity
8664;DHT22;4369;47.842;13.096;2022-10-16T00:00:36;13.40;99.90
8664;DHT22;4369;47.842;13.096;2022-10-16T00:03:03;13.40;99.90
8664;DHT22;4369;47.842;13.096;2022-10-16T00:05:30;13.30;99.90
8664;DHT22;4369;47.842;13.096;2022-10-16T00:07:57;13.20;99.90
8664;DHT22;4369;47.842;13.096;2022-10-16T00:10:25;13.20;99.90
8664;DHT22;4369;47.842;13.096;2022-10-16T00:12:52;13.10;99.90
8664;DHT22;4369;47.842;13.096;2022-10-16T00:15:19;13.10;99.90
8664;DHT22;4369;47.842;13.096;2022-10-16T00:17:46;13.10;99.90
8664;DHT22;4369;47.842;13.096;2022-10-16T00:20:12;13.10;99.90
8664;DHT22;4369;47.842;13.096;2022-10-16T00:22:39;13.10;99.90
8664;DHT22;4369;47.842;13.096;2022-10-16T00:25:06;13.20;99.90
8664;DHT22;4369;47.842;13.096;2022-10-16T00:27:35;13.20;99.90
8664;DHT22;4369;47.842;13.096;2022-10-16T00:30:02;13.20;99.90
8664;DHT22;4369;47.842;13.096;2022-10-16T00:32:29;13.20;99.90
8664;DHT22;4369;47.842;13.096;2022-10-16T00:34:56;13.10;99.90
8664;DHT22;4369;47.842;13.096;2022-10-16T00:37:23;13.10;99.90
8664;DHT22;4369;47.842;13.096;2022-10-16T00:39:50;13.10;99.90
8664;DHT22;4369;47.842;13.096;2022-10-16T00:42:18;13.10;99.90
8664;DHT22;4369;47.842;13.096;2022-10-16T00:44:48;13.10;99.90
8664;DHT22;4369;47.842;13.096;2022-10-16T00:47:21;13.10;99.90
8664;DHT22;4369;47.842;13.096;2022-10-16T00:49:51;13.10;99.90
8664;DHT22;4369;47.842;13.096;2022-10-16T00:52:19;13.10;99.90
8664;DHT22;4369;47.842;13.096;2022-10-16T00:54:47;13.20;99.90
8664;DHT22;4369;47.842;13.096;2022-10-16T00:57:15;13.20;99.90
8664;DHT22;4369;47.842;13.096;2022-10-16T00:59:42;13.20;99.90
8664;DHT22;4369;47.842;13.096;2022-10-16T01:02:13;13.20;99.90
8664;DHT22;4369;47.842;13.096;2022-10-16T01:04:42;13.20;99.90
8664;DHT22;4369;47.842;13.096;2022-10-16T01:07:13;13.20;99.90
8664;DHT22;4369;47.842;13.096;2022-10-16T01:09:51;13.20;99.90
8664;DHT22;4369;47.842;13.096;2022-10-16T01:12:25;13.20;99.90
8664;DHT22;4369;47.842;13.096;2022-10-16T01:14:58;13.10;99.90
8664;DHT22;4369;47.842;13.096;2022-10-16T01:17:30;13.10;99.90
8664;DHT22;4369;47.842;13.096;2022-10-16T01:20:10;13.10;99.90
8664;DHT22;4369;47.842;13.096;2022-10-16T01:22:48;13.10;99.90
8664;DHT22;4369;47.842;13.096;2022-10-16T01:25:21;13.00;99.90
8664;DHT22;4369;47.842;13.096;2022-10-16T01:27:51;13.00;99.90
8664;DHT22;4369;47.842;13.096;2022-10-16T01:30:23;13.00;99.90
8664;DHT22;4369;47.842;13.096;2022-10-16T01:32:55;13.00;99.90
8664;DHT22;4369;47.842;13.096;2022-10-16T01:35:26;13.00;99.90
8664;DHT22;4369;47.842;13.096;2022-10-16T01:37:58;13.00;99.90
8664;DHT22;4369;47.842;13.096;2022-10-16T01:40:27;12.90;99.90
8664;DHT22;4369;47.842;13.096;2022-10-16T01:43:01;13.00;99.90
8664;DHT22;4369;47.842;13.096;2022-10-16T01:45:31;13.00;99.90
8664;DHT22;4369;47.842;13.096;2022-10-16T01:48:00;13.00;99.90
8664;DHT22;4369;47.842;13.096;2022-10-16T01:50:31;13.00;99.90
8664;DHT22;4369;47.842;13.096;2022-10-16T01:52:59;13.00;99.90
8664;DHT22;4369;47.842;13.096;2022-10-16T01:55:30;13.00;99.90
8664;DHT22;4369;47.842;13.096;2022-10-16T01:58:01;12.90;99.90
8664;DHT22;4369;47.842;13.096;2022-10-16T02:00:29;12.90;99.90
8664;DHT22;4369;47.842;13.096;2022-10-16T02:02:58;12.80;99.90
8664;DHT22;4369;47.842;13.096;2022-10-16T02:05:30;12.80;99.90
8664;DHT22;4369;47.842;13.096;2022-10-16T02:07:59;12.80;99.90
8664;DHT22;4369;47.842;13.096;2022-10-16T02:10:26;12.70;99.90
8664;DHT22;4369;47.842;13.096;2022-10-16T02:13:00;12.70;99.90
8664;DHT22;4369;47.842;13.096;2022-10-16T02:15:28;12.70;99.90
8664;DHT22;4369;47.842;13.096;2022-10-16T02:17:55;12.70;99.90
8664;DHT22;4369;47.842;13.096;2022-10-16T02:20:25;12.70;99.90
8664;DHT22;4369;47.842;13.096;2022-10-16T02:22:53;12.70;99.90
8664;DHT22;4369;47.842;13.096;2022-10-16T02:25:24;12.70;99.90
8664;DHT22;4369;47.842;13.096;2022-10-16T02:27:54;12.70;99.90
8664;DHT22;4369;47.842;13.096;2022-10-16T02:30:27;12.70;99.90
8664;DHT22;4369;47.842;13.096;2022-10-16T02:32:56;12.60;99.90
8664;DHT22;4369;47.842;13.096;2022-10-16T02:35:25;12.60;99.90
8664;DHT22;4369;47.842;13.096;2022-10-16T02:37:54;12.50;99.90
8664;DHT22;4369;47.842;13.096;2022-10-16T02:40:22;12.50;99.90
8664;DHT22;4369;47.842;13.096;2022-10-16T02:42:50;12.50;99.90
8664;DHT22;4369;47.842;13.096;2022-10-16T02:45:18;12.50;99.90
8664;DHT22;4369;47.842;13.096;2022-10-16T02:47:47;12.50;99.90
8664;DHT22;4369;47.842;13.096;2022-10-16T02:50:13;12.50;99.90
8664;DHT22;4369;47.842;13.096;2022-10-16T02:52:40;12.50;99.90
8664;DHT22;4369;47.842;13.096;2022-10-16T02:55:07;12.40;99.90
8664;DHT22;4369;47.842;13.096;2022-10-16T02:57:34;12.40;99.90
8664;DHT22;4369;47.842;13.096;2022-10-16T03:00:03;12.40;99.90
8664;DHT22;4369;47.842;13.096;2022-10-16T03:02:30;12.40;99.90
8664;DHT22;4369;47.842;13.096;2022-10-16T03:04:59;12.40;99.90
8664;DHT22;4369;47.842;13.096;2022-10-16T03:07:25;12.50;99.90
8664;DHT22;4369;47.842;13.096;2022-10-16T03:09:52;12.50;99.90
8664;DHT22;4369;47.842;13.096;2022-10-16T03:12:20;12.50;99.90
8664;DHT22;4369;47.842;13.096;2022-10-16T03:14:47;12.60;99.90
8664;DHT22;4369;47.842;13.096;2022-10-16T03:17:13;12.50;99.90
8664;DHT22;4369;47.842;13.096;2022-10-16T03:19:42;12.50;99.90
8664;DHT22;4369;47.842;13.096;2022-10-16T03:22:10;12.50;99.90
8664;DHT22;4369;47.842;13.096;2022-10-16T03:24:37;12.50;99.90
8664;DHT22;4369;47.842;13.096;2022-10-16T03:27:04;12.40;99.90
8664;DHT22;4369;47.842;13.096;2022-10-16T03:29:30;12.40;99.90
8664;DHT22;4369;47.842;13.096;2022-10-16T03:31:59;12.40;99.90
8664;DHT22;4369;47.842;13.096;2022-10-16T03:34:25;12.40;99.90
8664;DHT22;4369;47.842;13.096;2022-10-16T03:36:53;12.30;99.90
8664;DHT22;4369;47.842;13.096;2022-10-16T03:39:21;12.30;99.90
8664;DHT22;4369;47.842;13.096;2022-10-16T03:41:48;12.30;99.90
8664;DHT22;4369;47.842;13.096;2022-10-16T03:44:15;12.30;99.90
8664;DHT22;4369;47.842;13.096;2022-10-16T03:46:42;12.30;99.90
8664;DHT22;4369;47.842;13.096;2022-10-16T03:49:09;12.20;99.90
8664;DHT22;4369;47.842;13.096;2022-10-16T03:51:36;12.20;99.90
8664;DHT22;4369;47.842;13.096;2022-10-16T03:54:03;12.20;99.90
8664;DHT22;4369;47.842;13.096;2022-10-16T03:56:31;12.20;99.90
8664;DHT22;4369;47.842;13.096;2022-10-16T03:58:58;12.20;99.90
8664;DHT22;4369;47.842;13.096;2022-10-16T04:01:25;12.20;99.90
8664;DHT22;4369;47.842;13.096;2022-10-16T04:03:52;12.20;99.90
8664;DHT22;4369;47.842;13.096;2022-10-16T04:06:18;12.20;99.90
8664;DHT22;4369;47.842;13.096;2022-10-16T04:08:45;12.20;99.90
8664;DHT22;4369;47.842;13.096;2022-10-16T04:11:12;12.20;99.90
8664;DHT22;4369;47.842;13.096;2022-10-16T04:13:40;12.20;99.90
8664;DHT22;4369;47.842;13.096;2022-10-16T04:16:07;12.10;99.90
8664;DHT22;4369;47.842;13.096;2022-10-16T04:18:34;12.10;99.90
8664;DHT22;4369;47.842;13.096;2022-10-16T04:21:05;12.10;99.90
8664;DHT22;4369;47.842;13.096;2022-10-16T04:23:33;12.10;99.90
8664;DHT22;4369;47.842;13.096;2022-10-16T04:26:00;12.10;99.90
8664;DHT22;4369;47.842;13.096;2022-10-16T04:28:27;12.10;99.90
8664;DHT22;4369;47.842;13.096;2022-10-16T04:30:55;12.00;99.90
8664;DHT22;4369;47.842;13.096;2022-10-16T04:33:22;12.00;99.90
8664;DHT22;4369;47.842;13.096;2022-10-16T04:35:56;12.00;99.90
8664;DHT22;4369;47.842;13.096;2022-10-16T04:38:22;12.00;99.90
8664;DHT22;4369;47.842;13.096;2022-10-16T04:40:49;12.00;99.90
8664;DHT22;4369;47.842;13.096;2022-10-16T04:43:16;12.00;99.90
8664;DHT22;4369;47.842;13.096;2022-10-16T04:45:43;12.00;99.90
8664;DHT22;4369;47.842;13.096;2022-10-16T04:48:11;12.00;99.90
8664;DHT22;4369;47.842;13.096;2022-10-16T04:50:38;11.90;99.90
8664;DHT22;4369;47.842;13.096;2022-10-16T04:53:05;11.90;99.90
8664;DHT22;4369;47.842;13.096;2022-10-16T04:55:32;11.90;99.90
8664;DHT22;4369;47.842;13.096;2022-10-16T04:57:59;11.90;99.90
8664;DHT22;4369;47.842;13.096;2022-10-16T05:00:27;11.90;99.90
8664;DHT22;4369;47.842;13.096;2022-10-16T05:02:53;11.90;99.90
8664;DHT22;4369;47.842;13.096;2022-10-16T05:05:22;11.90;99.90
8664;DHT22;4369;47.842;13.096;2022-10-16T05:07:48;11.90;99.90
8664;DHT22;4369;47.842;13.096;2022-10-16T05:10:16;11.90;99.90
8664;DHT22;4369;47.842;13.096;2022-10-16T05:12:42;11.90;99.90
8664;DHT22;4369;47.842;13.096;2022-10-16T05:15:10;11.80;99.90
8664;DHT22;4369;47.842;13.096;2022-10-16T05:17:37;11.80;99.90
8664;DHT22;4369;47.842;13.096;2022-10-16T05:20:05;11.80;99.90
8664;DHT22;4369;47.842;13.096;2022-10-16T05:22:33;11.80;99.90
8664;DHT22;4369;47.842;13.096;2022-10-16T05:25:00;11.80;99.90
8664;DHT22;4369;47.842;13.096;2022-10-16T05:27:27;11.70;99.90
8664;DHT22;4369;47.842;13.096;2022-10-16T05:29:54;11.60;99.90
8664;DHT22;4369;47.842;13.096;2022-10-16T05:32:21;11.60;99.90
8664;DHT22;4369;47.842;13.096;2022-10-16T05:34:52;11.70;99.90
8664;DHT22;4369;47.842;13.096;2022-10-16T05:37:19;11.70;99.90
8664;DHT22;4369;47.842;13.096;2022-10-16T05:39:47;11.70;99.90
8664;DHT22;4369;47.842;13.096;2022-10-16T05:42:14;11.60;99.90
8664;DHT22;4369;47.842;13.096;2022-10-16T05:44:41;11.70;99.90
8664;DHT22;4369;47.842;13.096;2022-10-16T05:47:07;11.70;99.90
8664;DHT22;4369;47.842;13.096;2022-10-16T05:49:36;11.70;99.90
8664;DHT22;4369;47.842;13.096;2022-10-16T05:52:03;11.70;99.90
8664;DHT22;4369;47.842;13.096;2022-10-16T05:54:30;11.70;99.90
8664;DHT22;4369;47.842;13.096;2022-10-16T05:56:58;11.80;99.90
8664;DHT22;4369;47.842;13.096;2022-10-16T05:59:25;11.80;99.90
8664;DHT22;4369;47.842;13.096;2022-10-16T06:01:51;11.80;99.90
8664;DHT22;4369;47.842;13.096;2022-10-16T06:04:19;11.70;99.90
8664;DHT22;4369;47.842;13.096;2022-10-16T06:06:45;11.70;99.90
8664;DHT22;4369;47.842;13.096;2022-10-16T06:09:12;11.70;99.90
8664;DHT22;4369;47.842;13.096;2022-10-16T06:11:39;11.80;99.90
8664;DHT22;4369;47.842;13.096;2022-10-16T06:14:08;11.80;99.90
8664;DHT22;4369;47.842;13.096;2022-10-16T06:16:36;11.80;99.90
8664;DHT22;4369;47.842;13.096;2022-10-16T06:19:03;11.90;99.90
8664;DHT22;4369;47.842;13.096;2022-10-16T06:21:32;12.00;99.90
8664;DHT22;4369;47.842;13.096;2022-10-16T06:23:59;12.00;99.90
8664;DHT22;4369;47.842;13.096;2022-10-16T06:26:27;12.10;99.90
8664;DHT22;4369;47.842;13.096;2022-10-16T06:28:54;12.00;99.90
8664;DHT22;4369;47.842;13.096;2022-10-16T06:31:23;12.00;99.90
8664;DHT22;4369;47.842;13.096;2022-10-16T06:33:54;12.10;99.90
8664;DHT22;4369;47.842;13.096;2022-10-16T06:36:22;12.10;99.90
8664;DHT22;4369;47.842;13.096;2022-10-16T06:38:49;12.20;99.90
8664;DHT22;4369;47.842;13.096;2022-10-16T06:41:17;12.20;99.90
8664;DHT22;4369;47.842;13.096;2022-10-16T06:43:44;12.20;99.90
8664;DHT22;4369;47.842;13.096;2022-10-16T06:46:13;12.20;99.90
8664;DHT22;4369;47.842;13.096;2022-10-16T06:48:41;12.20;99.90
8664;DHT22;4369;47.842;13.096;2022-10-16T06:51:11;12.30;99.90
8664;DHT22;4369;47.842;13.096;2022-10-16T06:53:39;12.30;99.90
8664;DHT22;4369;47.842;13.096;2022-10-16T06:56:08;12.40;99.90
8664;DHT22;4369;47.842;13.096;2022-10-16T06:58:35;12.60;99.90
8664;DHT22;4369;47.842;13.096;2022-10-16T07:01:02;12.80;99.90
8664;DHT22;4369;47.842;13.096;2022-10-16T07:03:29;12.90;99.90
8664;DHT22;4369;47.842;13.096;2022-10-16T07:06:01;13.10;99.90
8664;DHT22;4369;47.842;13.096;2022-10-16T07:08:30;13.30;99.90
8664;DHT22;4369;47.842;13.096;2022-10-16T07:11:01;13.50;99.90
8664;DHT22;4369;47.842;13.096;2022-10-16T07:13:28;13.80;99.90
8664;DHT22;4369;47.842;13.096;2022-10-16T07:15:54;14.10;99.90
8664;DHT22;4369;47.842;13.096;2022-10-16T07:18:21;14.20;99.90
8664;DHT22;4369;47.842;13.096;2022-10-16T07:20:52;14.40;99.90
8664;DHT22;4369;47.842;13.096;2022-10-16T07:23:20;14.60;99.90
8664;DHT22;4369;47.842;13.096;2022-10-16T07:25:53;14.70;99.90
8664;DHT22;4369;47.842;13.096;2022-10-16T07:28:20;14.90;99.90
8664;DHT22;4369;47.842;13.096;2022-10-16T07:30:47;15.10;99.90
8664;DHT22;4369;47.842;13.096;2022-10-16T07:33:14;15.30;99.90
8664;DHT22;4369;47.842;13.096;2022-10-16T07:35:48;15.30;99.90
8664;DHT22;4369;47.842;13.096;2022-10-16T07:38:15;15.40;99.90
8664;DHT22;4369;47.842;13.096;2022-10-16T07:40:43;15.40;99.90
8664;DHT22;4369;47.842;13.096;2022-10-16T07:43:12;15.40;99.90
8664;DHT22;4369;47.842;13.096;2022-10-16T07:45:47;15.40;99.90
8664;DHT22;4369;47.842;13.096;2022-10-16T07:48:15;15.40;99.90
8664;DHT22;4369;47.842;13.096;2022-10-16T07:50:42;15.40;99.90
8664;DHT22;4369;47.842;13.096;2022-10-16T07:53:10;15.40;99.90
8664;DHT22;4369;47.842;13.096;2022-10-16T07:55:37;15.50;99.90
8664;DHT22;4369;47.842;13.096;2022-10-16T07:58:05;15.60;99.90
8664;DHT22;4369;47.842;13.096;2022-10-16T08:00:33;15.70;99.90
8664;DHT22;4369;47.842;13.096;2022-10-16T08:03:00;15.70;99.90
8664;DHT22;4369;47.842;13.096;2022-10-16T08:05:28;15.80;99.90
8664;DHT22;4369;47.842;13.096;2022-10-16T08:07:58;15.90;99.90
8664;DHT22;4369;47.842;13.096;2022-10-16T08:10:26;16.00;99.90
8664;DHT22;4369;47.842;13.096;2022-10-16T08:12:54;16.10;99.90
8664;DHT22;4369;47.842;13.096;2022-10-16T08:15:22;16.10;99.90
8664;DHT22;4369;47.842;13.096;2022-10-16T08:18:00;16.20;99.90
8664;DHT22;4369;47.842;13.096;2022-10-16T08:20:29;16.30;99.90
8664;DHT22;4369;47.842;13.096;2022-10-16T08:22:58;16.40;99.90
8664;DHT22;4369;47.842;13.096;2022-10-16T08:25:25;16.50;99.90
8664;DHT22;4369;47.842;13.096;2022-10-16T08:27:53;16.60;99.90
8664;DHT22;4369;47.842;13.096;2022-10-16T08:30:22;16.80;99.90
8664;DHT22;4369;47.842;13.096;2022-10-16T08:32:49;17.00;99.90
8664;DHT22;4369;47.842;13.096;2022-10-16T08:35:16;17.10;99.90
8664;DHT22;4369;47.842;13.096;2022-10-16T08:37:43;17.30;99.90
8664;DHT22;4369;47.842;13.096;2022-10-16T08:40:17;17.40;99.90
8664;DHT22;4369;47.842;13.096;2022-10-16T08:43:01;17.50;99.90
8664;DHT22;4369;47.842;13.096;2022-10-16T08:45:43;17.60;99.90
8664;DHT22;4369;47.842;13.096;2022-10-16T08:48:19;17.80;99.90
8664;DHT22;4369;47.842;13.096;2022-10-16T08:50:48;18.00;99.90
8664;DHT22;4369;47.842;13.096;2022-10-16T08:53:19;18.10;99.90
8664;DHT22;4369;47.842;13.096;2022-10-16T08:55:50;18.30;99.90
8664;DHT22;4369;47.842;13.096;2022-10-16T08:58:19;18.40;99.90
8664;DHT22;4369;47.842;13.096;2022-10-16T09:00:50;18.50;99.90
8664;DHT22;4369;47.842;13.096;2022-10-16T09:03:24;18.70;99.90
8664;DHT22;4369;47.842;13.096;2022-10-16T09:06:01;18.80;99.90
8664;DHT22;4369;47.842;13.096;2022-10-16T09:08:37;18.90;99.90
8664;DHT22;4369;47.842;13.096;2022-10-16T09:11:14;19.10;99.90
8664;DHT22;4369;47.842;13.096;2022-10-16T09:13:50;19.30;99.90
8664;DHT22;4369;47.842;13.096;2022-10-16T09:16:24;19.40;99.90
8664;DHT22;4369;47.842;13.096;2022-10-16T09:18:58;19.60;99.90
8664;DHT22;4369;47.842;13.096;2022-10-16T09:21:29;19.80;99.90
8664;DHT22;4369;47.842;13.096;2022-10-16T09:23:59;20.00;99.90
8664;DHT22;4369;47.842;13.096;2022-10-16T09:26:26;20.10;99.90
8664;DHT22;4369;47.842;13.096;2022-10-16T09:28:53;20.30;99.90
8664;DHT22;4369;47.842;13.096;2022-10-16T09:31:23;20.40;99.90
8664;DHT22;4369;47.842;13.096;2022-10-16T09:33:52;20.50;99.90
8664;DHT22;4369;47.842;13.096;2022-10-16T09:36:21;20.50;99.90
8664;DHT22;4369;47.842;13.096;2022-10-16T09:38:48;20.70;99.90
8664;DHT22;4369;47.842;13.096;2022-10-16T09:41:18;20.70;99.90
8664;DHT22;4369;47.842;13.096;2022-10-16T09:43:51;20.90;99.90
8664;DHT22;4369;47.842;13.096;2022-10-16T09:46:26;21.10;99.90
8664;DHT22;4369;47.842;13.096;2022-10-16T09:48:56;21.20;99.90
8664;DHT22;4369;47.842;13.096;2022-10-16T09:51:25;21.30;99.90
8664;DHT22;4369;47.842;13.096;2022-10-16T09:53:56;21.60;99.90
8664;DHT22;4369;47.842;13.096;2022-10-16T09:56:27;21.80;99.90
8664;DHT22;4369;47.842;13.096;2022-10-16T09:58:56;22.00;99.90
8664;DHT22;4369;47.842;13.096;2022-10-16T10:01:29;22.00;99.90
8664;DHT22;4369;47.842;13.096;2022-10-16T10:03:57;22.00;99.90
8664;DHT22;4369;47.842;13.096;2022-10-16T10:06:29;22.20;99.90
8664;DHT22;4369;47.842;13.096;2022-10-16T10:09:00;22.30;99.90
8664;DHT22;4369;47.842;13.096;2022-10-16T10:11:38;22.30;99.90
8664;DHT22;4369;47.842;13.096;2022-10-16T10:14:05;22.50;99.90
8664;DHT22;4369;47.842;13.096;2022-10-16T10:16:34;22.50;99.90
8664;DHT22;4369;47.842;13.096;2022-10-16T10:19:01;22.60;99.90
8664;DHT22;4369;47.842;13.096;2022-10-16T10:21:28;22.80;99.90
8664;DHT22;4369;47.842;13.096;2022-10-16T10:23:55;22.90;99.90
8664;DHT22;4369;47.842;13.096;2022-10-16T10:26:24;23.00;99.90
8664;DHT22;4369;47.842;13.096;2022-10-16T10:29:00;23.20;99.90
8664;DHT22;4369;47.842;13.096;2022-10-16T10:31:36;23.30;99.90
8664;DHT22;4369;47.842;13.096;2022-10-16T10:34:17;23.30;99.90
8664;DHT22;4369;47.842;13.096;2022-10-16T10:36:53;23.20;99.90
8664;DHT22;4369;47.842;13.096;2022-10-16T10:39:27;23.30;99.90
8664;DHT22;4369;47.842;13.096;2022-10-16T10:42:16;23.40;99.90
8664;DHT22;4369;47.842;13.096;2022-10-16T10:44:55;23.60;99.90
8664;DHT22;4369;47.842;13.096;2022-10-16T10:47:32;23.80;99.90
8664;DHT22;4369;47.842;13.096;2022-10-16T10:50:08;24.00;99.90
8664;DHT22;4369;47.842;13.096;2022-10-16T10:52:43;24.40;99.90
8664;DHT22;4369;47.842;13.096;2022-10-16T10:55:21;24.60;99.90
8664;DHT22;4369;47.842;13.096;2022-10-16T10:58:10;24.80;99.90
8664;DHT22;4369;47.842;13.096;2022-10-16T11:00:46;25.30;99.90
8664;DHT22;4369;47.842;13.096;2022-10-16T11:03:27;25.60;99.90
8664;DHT22;4369;47.842;13.096;2022-10-16T11:06:00;26.30;99.90
8664;DHT22;4369;47.842;13.096;2022-10-16T11:08:35;26.80;99.90
8664;DHT22;4369;47.842;13.096;2022-10-16T11:11:04;27.40;98.30
8664;DHT22;4369;47.842;13.096;2022-10-16T11:13:38;27.90;95.10
8664;DHT22;4369;47.842;13.096;2022-10-16T11:16:15;29.10;93.20
8664;DHT22;4369;47.842;13.096;2022-10-16T11:18:49;30.90;84.40
8664;DHT22;4369;47.842;13.096;2022-10-16T11:21:19;33.60;71.30
8664;DHT22;4369;47.842;13.096;2022-10-16T11:23:53;35.80;60.00
8664;DHT22;4369;47.842;13.096;2022-10-16T11:26:24;38.40;51.90
8664;DHT22;4369;47.842;13.096;2022-10-16T11:28:54;40.60;47.20
8664;DHT22;4369;47.842;13.096;2022-10-16T11:31:27;41.40;44.30
8664;DHT22;4369;47.842;13.096;2022-10-16T11:34:02;43.80;40.50
8664;DHT22;4369;47.842;13.096;2022-10-16T11:36:36;46.00;37.50
8664;DHT22;4369;47.842;13.096;2022-10-16T11:39:22;48.20;34.20
8664;DHT22;4369;47.842;13.096;2022-10-16T11:41:53;51.30;32.70
8664;DHT22;4369;47.842;13.096;2022-10-16T11:44:36;53.90;29.60
8664;DHT22;4369;47.842;13.096;2022-10-16T11:47:12;55.70;28.10
8664;DHT22;4369;47.842;13.096;2022-10-16T11:49:44;57.60;26.60
8664;DHT22;4369;47.842;13.096;2022-10-16T11:52:17;58.50;26.20
8664;DHT22;4369;47.842;13.096;2022-10-16T11:54:49;59.20;26.30
8664;DHT22;4369;47.842;13.096;2022-10-16T11:57:21;59.70;25.30
8664;DHT22;4369;47.842;13.096;2022-10-16T11:59:52;59.20;25.20
8664;DHT22;4369;47.842;13.096;2022-10-16T12:02:35;58.70;24.80
8664;DHT22;4369;47.842;13.096;2022-10-16T12:05:15;58.40;24.90
8664;DHT22;4369;47.842;13.096;2022-10-16T12:07:51;59.80;24.60
8664;DHT22;4369;47.842;13.096;2022-10-16T12:10:21;60.30;24.10
8664;DHT22;4369;47.842;13.096;2022-10-16T12:12:49;59.50;24.10
8664;DHT22;4369;47.842;13.096;2022-10-16T12:15:23;60.10;24.20
8664;DHT22;4369;47.842;13.096;2022-10-16T12:17:50;60.00;24.20
8664;DHT22;4369;47.842;13.096;2022-10-16T12:20:23;60.30;24.20
8664;DHT22;4369;47.842;13.096;2022-10-16T12:22:54;59.80;23.40
8664;DHT22;4369;47.842;13.096;2022-10-16T12:25:24;60.00;23.60
8664;DHT22;4369;47.842;13.096;2022-10-16T12:27:58;60.70;23.40
8664;DHT22;4369;47.842;13.096;2022-10-16T12:30:27;60.10;23.70
8664;DHT22;4369;47.842;13.096;2022-10-16T12:32:56;60.50;23.40
8664;DHT22;4369;47.842;13.096;2022-10-16T12:35:27;59.50;23.30
8664;DHT22;4369;47.842;13.096;2022-10-16T12:38:08;59.10;23.70
8664;DHT22;4369;47.842;13.096;2022-10-16T12:40:39;59.60;23.80
8664;DHT22;4369;47.842;13.096;2022-10-16T12:43:24;58.50;23.80
8664;DHT22;4369;47.842;13.096;2022-10-16T12:46:00;57.50;23.30
8664;DHT22;4369;47.842;13.096;2022-10-16T12:48:26;57.20;23.50
8664;DHT22;4369;47.842;13.096;2022-10-16T12:51:22;56.50;24.10
8664;DHT22;4369;47.842;13.096;2022-10-16T12:53:58;55.20;24.10
8664;DHT22;4369;47.842;13.096;2022-10-16T12:56:31;56.80;24.50
8664;DHT22;4369;47.842;13.096;2022-10-16T12:59:09;58.00;24.10
8664;DHT22;4369;47.842;13.096;2022-10-16T13:01:46;57.80;23.70
8664;DHT22;4369;47.842;13.096;2022-10-16T13:04:31;56.50;24.20
8664;DHT22;4369;47.842;13.096;2022-10-16T13:07:20;57.00;23.60
8664;DHT22;4369;47.842;13.096;2022-10-16T13:10:00;58.00;23.60
8664;DHT22;4369;47.842;13.096;2022-10-16T13:15:41;57.60;23.20
8664;DHT22;4369;47.842;13.096;2022-10-16T13:18:15;56.00;22.30
8664;DHT22;4369;47.842;13.096;2022-10-16T13:20:55;54.90;23.60
8664;DHT22;4369;47.842;13.096;2022-10-16T13:23:29;55.00;23.60
8664;DHT22;4369;47.842;13.096;2022-10-16T13:26:05;54.70;23.40
8664;DHT22;4369;47.842;13.096;2022-10-16T13:28:37;53.60;24.10
8664;DHT22;4369;47.842;13.096;2022-10-16T13:31:05;51.60;24.50
8664;DHT22;4369;47.842;13.096;2022-10-16T13:33:39;51.00;24.10
8664;DHT22;4369;47.842;13.096;2022-10-16T13:36:06;49.20;24.80
8664;DHT22;4369;47.842;13.096;2022-10-16T13:38:35;47.30;26.90
8664;DHT22;4369;47.842;13.096;2022-10-16T13:41:04;44.70;28.80
8664;DHT22;4369;47.842;13.096;2022-10-16T13:43:33;42.70;29.40
8664;DHT22;4369;47.842;13.096;2022-10-16T13:46:03;41.50;30.80
8664;DHT22;4369;47.842;13.096;2022-10-16T13:48:31;40.40;31.60
8664;DHT22;4369;47.842;13.096;2022-10-16T13:51:03;39.30;32.00
8664;DHT22;4369;47.842;13.096;2022-10-16T13:53:32;39.10;32.70
8664;DHT22;4369;47.842;13.096;2022-10-16T13:56:04;39.20;33.50
8664;DHT22;4369;47.842;13.096;2022-10-16T13:58:31;39.50;32.50
8664;DHT22;4369;47.842;13.096;2022-10-16T14:01:00;39.60;32.30
8664;DHT22;4369;47.842;13.096;2022-10-16T14:03:28;39.30;32.20
8664;DHT22;4369;47.842;13.096;2022-10-16T14:05:57;38.90;33.00
8664;DHT22;4369;47.842;13.096;2022-10-16T14:08:26;37.90;34.50
8664;DHT22;4369;47.842;13.096;2022-10-16T14:10:55;36.20;35.90
8664;DHT22;4369;47.842;13.096;2022-10-16T14:13:31;34.50;36.30
8664;DHT22;4369;47.842;13.096;2022-10-16T14:16:04;33.40;37.40
8664;DHT22;4369;47.842;13.096;2022-10-16T14:18:32;32.60;37.90
8664;DHT22;4369;47.842;13.096;2022-10-16T14:21:04;32.00;38.40
8664;DHT22;4369;47.842;13.096;2022-10-16T14:23:35;31.30;38.90
8664;DHT22;4369;47.842;13.096;2022-10-16T14:26:12;30.70;41.10
8664;DHT22;4369;47.842;13.096;2022-10-16T14:28:42;30.30;41.40
8664;DHT22;4369;47.842;13.096;2022-10-16T14:31:36;29.80;42.10
8664;DHT22;4369;47.842;13.096;2022-10-16T14:34:23;29.30;42.70
8664;DHT22;4369;47.842;13.096;2022-10-16T14:36:53;29.10;45.00
8664;DHT22;4369;47.842;13.096;2022-10-16T14:39:21;28.60;47.70
8664;DHT22;4369;47.842;13.096;2022-10-16T14:41:50;28.40;50.00
8664;DHT22;4369;47.842;13.096;2022-10-16T14:44:19;28.20;49.40
8664;DHT22;4369;47.842;13.096;2022-10-16T14:46:49;27.90;51.10
8664;DHT22;4369;47.842;13.096;2022-10-16T14:49:18;27.70;53.00
8664;DHT22;4369;47.842;13.096;2022-10-16T14:51:46;27.50;54.60
8664;DHT22;4369;47.842;13.096;2022-10-16T14:54:13;27.20;55.50
8664;DHT22;4369;47.842;13.096;2022-10-16T14:56:47;26.80;56.50
8664;DHT22;4369;47.842;13.096;2022-10-16T14:59:19;26.60;58.60
8664;DHT22;4369;47.842;13.096;2022-10-16T15:01:47;26.30;58.70
8664;DHT22;4369;47.842;13.096;2022-10-16T15:04:14;26.20;60.60
8664;DHT22;4369;47.842;13.096;2022-10-16T15:06:41;25.90;62.80
8664;DHT22;4369;47.842;13.096;2022-10-16T15:09:08;25.80;65.00
8664;DHT22;4369;47.842;13.096;2022-10-16T15:11:35;25.60;66.70
8664;DHT22;4369;47.842;13.096;2022-10-16T15:14:03;25.40;69.60
8664;DHT22;4369;47.842;13.096;2022-10-16T15:16:34;25.30;71.70
8664;DHT22;4369;47.842;13.096;2022-10-16T15:19:01;25.10;73.30
8664;DHT22;4369;47.842;13.096;2022-10-16T15:21:30;25.00;78.50
8664;DHT22;4369;47.842;13.096;2022-10-16T15:23:57;24.80;79.60
8664;DHT22;4369;47.842;13.096;2022-10-16T15:26:25;24.60;81.50
8664;DHT22;4369;47.842;13.096;2022-10-16T15:28:52;24.50;81.90
8664;DHT22;4369;47.842;13.096;2022-10-16T15:31:19;24.40;84.20
8664;DHT22;4369;47.842;13.096;2022-10-16T15:33:49;24.40;86.70
8664;DHT22;4369;47.842;13.096;2022-10-16T15:36:25;24.30;87.70
8664;DHT22;4369;47.842;13.096;2022-10-16T15:38:52;24.20;87.80
8664;DHT22;4369;47.842;13.096;2022-10-16T15:41:19;24.00;88.20
8664;DHT22;4369;47.842;13.096;2022-10-16T15:43:48;23.70;90.30
8664;DHT22;4369;47.842;13.096;2022-10-16T15:46:18;23.50;92.50
8664;DHT22;4369;47.842;13.096;2022-10-16T15:48:45;23.30;94.20
8664;DHT22;4369;47.842;13.096;2022-10-16T15:51:13;23.00;95.30
8664;DHT22;4369;47.842;13.096;2022-10-16T15:53:40;22.80;97.00
8664;DHT22;4369;47.842;13.096;2022-10-16T15:56:09;22.50;99.20
8664;DHT22;4369;47.842;13.096;2022-10-16T15:58:36;22.40;99.90
8664;DHT22;4369;47.842;13.096;2022-10-16T16:01:04;22.10;99.90
8664;DHT22;4369;47.842;13.096;2022-10-16T16:03:32;21.90;99.90
8664;DHT22;4369;47.842;13.096;2022-10-16T16:06:04;21.80;99.90